createdAt,value
2019-05-23T00:00:09.273Z,98092.73
2019-05-23T00:03:00.613Z,98097.52
2019-05-23T00:05:58.282Z,98091.66
2019-05-23T00:08:51.278Z,98092.11
2019-05-23T00:11:34.114Z,98097.79
2019-05-23T00:14:20.776Z,98093.34
2019-05-23T00:16:57.123Z,98092.64
2019-05-23T00:19:33.387Z,98089.66
2019-05-23T00:22:09.879Z,98089.66
2019-05-23T00:24:43.876Z,98094.59
2019-05-23T00:27:18.241Z,98096.81
2019-05-23T00:29:53.599Z,98100.59
2019-05-23T00:32:46.541Z,98100.59
2019-05-23T00:35:22.103Z,98098.77
2019-05-23T00:37:57.273Z,98100.94
2019-05-23T00:40:31.714Z,98099.49
2019-05-23T00:43:07.407Z,98091.92
2019-05-23T00:45:42.273Z,98103.19
2019-05-23T00:48:17.675Z,98098.52
2019-05-23T00:50:53.220Z,98097.54
2019-05-23T00:53:28.528Z,98099.49
2019-05-23T00:56:02.942Z,98101.30
2019-05-23T00:58:37.643Z,98103.75
2019-05-23T01:01:13.942Z,98101.74
2019-05-23T01:03:48.861Z,98103.66
2019-05-23T01:06:22.290Z,98111.55
2019-05-23T01:08:58.750Z,98109.89
2019-05-23T01:11:33.780Z,98109.89
2019-05-23T01:14:07.276Z,98106.34
2019-05-23T01:16:42.288Z,98106.64
2019-05-23T01:19:18.281Z,98112.47
2019-05-23T01:22:05.350Z,98107.83
2019-05-23T01:24:42.270Z,98109.84
2019-05-23T01:27:17.506Z,98106.20
2019-05-23T01:29:52.702Z,98107.08
2019-05-23T01:32:42.315Z,98102.45
2019-05-23T01:35:21.277Z,98109.41
2019-05-23T01:37:57.282Z,98105.70
2019-05-23T01:40:32.268Z,98107.59
2019-05-23T01:43:08.304Z,98109.13
2019-05-23T01:45:44.110Z,98107.45
2019-05-23T01:48:20.104Z,98108.41
2019-05-23T01:50:54.883Z,98111.37
2019-05-23T01:53:30.117Z,98111.37
2019-05-23T01:56:04.677Z,98111.23
2019-05-23T01:58:40.284Z,98110.78
2019-05-23T02:01:16.131Z,98111.89
2019-05-23T02:03:51.264Z,98112.98
2019-05-23T02:06:25.683Z,98111.02
2019-05-23T02:08:58.998Z,98116.38
2019-05-23T02:11:33.031Z,98108.72
2019-05-23T02:14:08.303Z,98117.10
2019-05-23T02:16:42.673Z,98112.36
2019-05-23T02:19:18.431Z,98112.36
2019-05-23T02:21:52.947Z,98108.52
2019-05-23T02:24:28.135Z,98117.45
2019-05-23T02:27:03.328Z,98116.38
2019-05-23T02:29:37.775Z,98112.83
2019-05-23T02:32:11.521Z,98115.36
2019-05-23T02:34:46.348Z,98114.69
2019-05-23T02:37:48.285Z,98110.51
2019-05-23T02:40:30.311Z,98111.39
2019-05-23T02:43:07.266Z,98106.77
2019-05-23T02:45:48.301Z,98103.17
2019-05-23T02:48:26.557Z,98101.81
2019-05-23T02:51:05.289Z,98108.50
2019-05-23T02:53:40.940Z,98105.89
2019-05-23T02:56:18.349Z,98112.20
2019-05-23T02:59:27.121Z,98105.36
2019-05-23T03:02:55.382Z,98102.86
2019-05-23T03:05:31.731Z,98108.65
2019-05-23T03:08:09.143Z,98103.11
2019-05-23T03:10:59.119Z,98090.84
2019-05-23T03:13:36.507Z,98090.84
2019-05-23T03:16:17.145Z,98095.97
2019-05-23T03:19:00.286Z,98095.84
2019-05-23T03:21:36.496Z,98097.78
2019-05-23T03:24:11.291Z,98100.36
2019-05-23T03:27:15.594Z,98100.55
2019-05-23T03:29:50.332Z,98090.84
2019-05-23T03:32:42.730Z,98085.56
2019-05-23T03:35:24.948Z,98085.56
2019-05-23T03:38:00.277Z,98090.03
2019-05-23T03:40:35.670Z,98090.03
2019-05-23T03:43:10.357Z,98088.77
2019-05-23T03:45:54.663Z,98087.30
2019-05-23T03:48:30.126Z,98084.98
2019-05-23T03:51:05.410Z,98085.36
2019-05-23T03:53:41.740Z,98085.36
2019-05-23T03:56:16.284Z,98089.47
2019-05-23T03:58:52.274Z,98091.21
2019-05-23T04:01:46.119Z,98092.71
2019-05-23T04:04:06.675Z,98097.49
2019-05-23T04:06:41.345Z,98097.49
2019-05-23T04:09:16.500Z,98103.92
2019-05-23T04:11:51.274Z,98102.18
2019-05-23T04:14:25.932Z,98096.78
2019-05-23T04:17:00.310Z,98094.27
2019-05-23T04:19:34.938Z,98101.56
2019-05-23T04:22:10.286Z,98097.97
2019-05-23T04:26:32.775Z,98090.96
2019-05-23T04:29:06.470Z,98091.43
2019-05-23T04:31:41.089Z,98091.23
2019-05-23T04:34:15.643Z,98089.89
2019-05-23T04:36:50.642Z,98089.89
2019-05-23T04:39:25.269Z,98094.36
2019-05-23T04:42:00.114Z,98090.77
2019-05-23T04:44:35.478Z,98087.15
2019-05-23T04:47:10.543Z,98087.15
2019-05-23T04:49:45.409Z,98094.19
2019-05-23T04:52:21.295Z,98095.36
2019-05-23T04:54:55.906Z,98091.19
2019-05-23T04:57:31.265Z,98091.19
2019-05-23T05:00:08.068Z,98096.37
2019-05-23T05:02:45.272Z,98101.61
2019-05-23T05:05:20.813Z,98103.36
2019-05-23T05:07:54.281Z,98104.32
2019-05-23T05:10:29.637Z,98114.05
2019-05-23T05:13:04.283Z,98114.05
2019-05-23T05:15:38.757Z,98111.75
2019-05-23T05:18:12.288Z,98114.14
2019-05-23T05:20:46.941Z,98114.47
2019-05-23T05:23:23.821Z,98114.47
2019-05-23T05:25:57.041Z,98121.38
2019-05-23T05:28:31.653Z,98124.22
2019-05-23T05:31:06.672Z,98131.97
2019-05-23T05:33:41.267Z,98131.97
2019-05-23T05:36:15.927Z,98127.65
2019-05-23T05:38:49.619Z,98126.17
2019-05-23T05:41:24.277Z,98132.11
2019-05-23T05:43:59.283Z,98140.87
2019-05-23T05:46:34.301Z,98140.87
2019-05-23T05:49:10.282Z,98141.41
2019-05-23T05:51:45.276Z,98142.19
2019-05-23T05:54:19.777Z,98137.08
2019-05-23T05:56:52.875Z,98147.83
2019-05-23T05:59:28.283Z,98147.52
2019-05-23T06:02:04.633Z,98153.58
2019-05-23T06:04:39.873Z,98151.64
2019-05-23T06:07:31.289Z,98152.12
2019-05-23T06:10:09.528Z,98149.14
2019-05-23T06:12:44.282Z,98149.67
2019-05-23T06:15:19.557Z,98148.45
2019-05-23T06:17:54.180Z,98148.45
2019-05-23T06:20:29.642Z,98151.84
2019-05-23T06:23:05.786Z,98151.91
2019-05-23T06:25:38.993Z,98151.91
2019-05-23T06:28:12.273Z,98152.34
2019-05-23T06:30:48.280Z,98154.00
2019-05-23T06:33:24.504Z,98154.00
2019-05-23T06:35:59.283Z,98152.02
2019-05-23T06:38:34.433Z,98147.89
2019-05-23T06:41:11.403Z,98147.27
2019-05-23T06:43:45.942Z,98150.94
2019-05-23T06:46:20.286Z,98149.53
2019-05-23T06:48:54.875Z,98151.66
2019-05-23T06:51:29.539Z,98151.66
2019-05-23T06:54:05.348Z,98155.94
2019-05-23T06:56:40.342Z,98148.41
2019-05-23T06:59:15.942Z,98155.50
2019-05-23T07:01:50.357Z,98152.99
2019-05-23T07:04:25.274Z,98148.48
2019-05-23T07:07:00.659Z,98146.61
2019-05-23T07:09:35.338Z,98157.66
2019-05-23T07:12:10.280Z,98157.66
2019-05-23T07:14:45.281Z,98154.88
2019-05-23T07:17:21.508Z,98153.07
2019-05-23T07:19:56.263Z,98153.07
2019-05-23T07:22:31.071Z,98154.09
2019-05-23T07:25:07.275Z,98150.23
2019-05-23T07:27:41.978Z,98150.23
2019-05-23T07:30:22.879Z,98162.43
2019-05-23T07:32:58.264Z,98159.61
2019-05-23T07:35:33.111Z,98164.22
2019-05-23T07:38:07.825Z,98157.06
2019-05-23T07:40:41.088Z,98157.27
2019-05-23T07:43:17.288Z,98157.27
2019-05-23T07:45:55.745Z,98173.61
2019-05-23T07:48:29.484Z,98170.20
2019-05-23T07:51:04.288Z,98164.15
2019-05-23T07:53:56.437Z,98158.04
2019-05-23T07:56:33.457Z,98158.04
2019-05-23T07:59:08.294Z,98166.32
2019-05-23T08:01:47.389Z,98163.13
2019-05-23T08:04:23.313Z,98168.96
2019-05-23T08:06:59.687Z,98157.72
2019-05-23T08:09:33.288Z,98157.72
2019-05-23T08:12:07.975Z,98159.49
2019-05-23T08:14:42.329Z,98159.49
2019-05-23T08:17:18.135Z,98156.37
2019-05-23T08:19:52.930Z,98155.30
2019-05-23T08:22:27.873Z,98155.30
2019-05-23T08:25:02.675Z,98159.08
2019-05-23T08:27:35.865Z,98158.30
2019-05-23T08:30:10.723Z,98159.48
2019-05-23T08:32:44.273Z,98167.95
2019-05-23T08:35:18.769Z,98156.73
2019-05-23T08:37:53.286Z,98156.73
2019-05-23T08:40:29.675Z,98152.51
2019-05-23T08:43:04.778Z,98161.22
2019-05-23T08:45:38.814Z,98167.47
2019-05-23T08:48:13.479Z,98156.95
2019-05-23T08:50:51.270Z,98161.14
2019-05-23T08:53:26.463Z,98165.48
2019-05-23T08:56:02.019Z,98165.93
2019-05-23T08:58:37.251Z,98172.37
2019-05-23T09:01:11.946Z,98172.37
2019-05-23T09:03:47.557Z,98158.03
2019-05-23T09:06:22.247Z,98158.03
2019-05-23T09:08:56.951Z,98159.69
2019-05-23T09:11:31.282Z,98161.80
2019-05-23T09:14:08.379Z,98151.00
2019-05-23T09:16:43.289Z,98153.55
2019-05-23T09:19:18.280Z,98150.22
2019-05-23T09:21:57.814Z,98154.06
2019-05-23T09:24:30.831Z,98153.38
2019-05-23T09:27:06.956Z,98151.11
2019-05-23T09:29:41.282Z,98158.13
2019-05-23T09:32:15.959Z,98153.62
2019-05-23T09:34:50.279Z,98154.05
2019-05-23T09:37:25.308Z,98149.22
2019-05-23T09:40:00.406Z,98141.67
2019-05-23T09:42:35.285Z,98148.96
2019-05-23T09:45:10.645Z,98149.70
2019-05-23T09:47:44.272Z,98146.08
2019-05-23T09:50:21.389Z,98145.00
2019-05-23T09:52:56.615Z,98145.95
2019-05-23T09:55:32.337Z,98152.42
2019-05-23T09:58:06.948Z,98148.25
2019-05-23T10:00:42.272Z,98135.70
2019-05-23T10:03:16.893Z,98135.70
2019-05-23T10:05:51.729Z,98133.86
2019-05-23T10:08:26.634Z,98141.99
2019-05-23T10:11:01.575Z,98140.46
2019-05-23T10:13:39.448Z,98136.81
2019-05-23T10:16:12.448Z,98140.16
2019-05-23T10:18:47.316Z,98131.58
2019-05-23T10:21:21.942Z,98135.13
2019-05-23T10:23:56.658Z,98127.38
2019-05-23T10:26:31.439Z,98127.38
2019-05-23T10:29:06.580Z,98135.14
2019-05-23T10:31:42.304Z,98127.23
2019-05-23T10:34:16.939Z,98128.11
2019-05-23T10:36:51.726Z,98127.02
2019-05-23T10:39:27.972Z,98125.39
2019-05-23T10:42:02.812Z,98132.55
2019-05-23T10:44:37.307Z,98123.08
2019-05-23T10:47:12.938Z,98117.19
2019-05-23T10:49:47.766Z,98113.89
2019-05-23T10:52:21.104Z,98109.98
2019-05-23T10:54:55.597Z,98107.08
2019-05-23T10:57:30.593Z,98108.22
2019-05-23T11:00:05.700Z,98096.05
2019-05-23T11:02:40.848Z,98097.38
2019-05-23T11:05:17.288Z,98097.73
2019-05-23T11:07:51.944Z,98090.73
2019-05-23T11:10:27.380Z,98093.05
2019-05-23T11:13:01.951Z,98096.33
2019-05-23T11:15:37.294Z,98088.55
2019-05-23T11:18:12.300Z,98088.55
2019-05-23T11:20:47.085Z,98087.53
2019-05-23T11:23:26.410Z,98079.66
2019-05-23T11:26:02.355Z,98079.66
2019-05-23T11:28:38.281Z,98084.38
2019-05-23T11:31:14.091Z,98076.49
2019-05-23T11:33:48.735Z,98076.28
2019-05-23T11:36:35.043Z,98060.02
2019-05-23T11:38:57.560Z,98067.69
2019-05-23T11:41:32.293Z,98067.69
2019-05-23T11:44:58.373Z,98067.44
2019-05-23T11:47:34.278Z,98060.10
2019-05-23T11:50:11.859Z,98066.63
2019-05-23T11:52:46.303Z,98066.63
2019-05-23T11:55:20.959Z,98057.33
2019-05-23T11:57:56.286Z,98052.44
2019-05-23T12:01:34.419Z,98053.74
2019-05-23T12:04:14.316Z,98052.89
2019-05-23T12:07:06.603Z,98053.84
2019-05-23T12:09:42.279Z,98049.70
2019-05-23T12:12:17.491Z,98053.27
2019-05-23T12:14:52.273Z,98046.12
2019-05-23T12:17:29.428Z,98055.98
2019-05-23T12:20:04.474Z,98046.31
2019-05-23T12:22:38.075Z,98046.31
2019-05-23T12:25:23.326Z,98037.16
2019-05-23T12:27:50.678Z,98039.61
2019-05-23T12:30:25.714Z,98039.61
2019-05-23T12:32:59.050Z,98029.16
2019-05-23T12:35:33.750Z,98029.44
2019-05-23T12:38:07.656Z,98027.64
2019-05-23T12:40:42.279Z,98016.02
2019-05-23T12:43:16.733Z,98021.80
2019-05-23T12:45:50.349Z,98031.50
2019-05-23T12:48:52.424Z,98014.27
2019-05-23T12:51:31.259Z,98014.27
2019-05-23T12:54:06.958Z,98017.21
2019-05-23T12:56:42.267Z,98004.02
2019-05-23T12:59:17.274Z,98007.83
2019-05-23T13:01:54.377Z,98007.83
2019-05-23T13:04:29.278Z,98005.05
2019-05-23T13:07:04.865Z,98004.90
2019-05-23T13:09:39.403Z,98000.80
2019-05-23T13:12:16.411Z,98000.80
2019-05-23T13:14:53.540Z,98007.06
2019-05-23T13:17:27.355Z,98007.06
2019-05-23T13:20:02.265Z,98004.51
2019-05-23T13:22:37.278Z,97995.13
2019-05-23T13:25:14.268Z,98003.00
2019-05-23T13:27:48.790Z,98005.05
2019-05-23T13:30:22.541Z,98000.03
2019-05-23T13:32:57.702Z,98003.20
2019-05-23T13:35:32.295Z,97999.97
2019-05-23T13:38:07.282Z,97997.91
2019-05-23T13:40:42.280Z,97989.00
2019-05-23T13:43:16.916Z,98004.95
2019-05-23T13:45:51.662Z,97993.94
2019-05-23T13:48:28.299Z,97993.67
2019-05-23T13:51:02.888Z,97993.94
2019-05-23T13:53:38.269Z,97990.69
2019-05-23T13:56:12.922Z,97990.69
2019-05-23T13:58:49.094Z,97982.95
2019-05-23T14:01:23.668Z,97989.33
2019-05-23T14:03:57.085Z,97989.33
2019-05-23T14:06:31.792Z,97984.26
2019-05-23T14:09:25.902Z,97985.95
2019-05-23T14:12:20.195Z,97982.02
2019-05-23T14:14:35.280Z,97982.08
2019-05-23T14:17:20.460Z,97985.53
2019-05-23T14:19:55.285Z,97981.35
2019-05-23T14:22:31.361Z,97972.67
2019-05-23T14:25:07.326Z,97972.67
2019-05-23T14:27:53.896Z,97975.55
2019-05-23T14:30:45.664Z,97971.09
2019-05-23T14:33:31.287Z,97977.58
2019-05-23T14:36:08.766Z,97973.84
2019-05-23T14:38:44.489Z,97973.84
2019-05-23T14:41:19.314Z,97960.09
2019-05-23T14:43:54.565Z,97960.00
2019-05-23T14:46:32.654Z,97967.84
2019-05-23T14:49:12.803Z,97959.90
2019-05-23T14:52:06.097Z,97969.34
2019-05-23T14:54:43.627Z,97956.91
2019-05-23T14:57:18.738Z,97956.91
2019-05-23T14:59:52.270Z,97966.42
2019-05-23T15:02:27.139Z,97960.85
2019-05-23T15:05:01.757Z,97936.75
2019-05-23T15:07:36.281Z,97953.08
2019-05-23T15:10:11.310Z,97955.88
2019-05-23T15:12:45.920Z,97954.36
2019-05-23T15:15:20.487Z,97953.73
2019-05-23T15:17:55.255Z,97946.33
2019-05-23T15:20:30.330Z,97955.69
2019-05-23T15:23:05.282Z,97955.02
2019-05-23T15:25:39.989Z,97949.77
2019-05-23T15:28:14.657Z,97946.39
2019-05-23T15:30:49.387Z,97946.64
2019-05-23T15:33:24.280Z,97954.17
2019-05-23T15:35:59.116Z,97953.57
2019-05-23T15:38:33.700Z,97955.35
2019-05-23T15:41:07.361Z,97959.42
2019-05-23T15:43:42.279Z,97957.23
2019-05-23T15:46:16.896Z,97945.38
2019-05-23T15:48:51.392Z,97949.84
2019-05-23T15:51:31.481Z,97956.74
2019-05-23T15:54:11.687Z,97952.27
2019-05-23T15:57:02.306Z,97954.88
2019-05-23T16:00:01.204Z,97949.02
2019-05-23T16:02:42.355Z,97949.02
2019-05-23T16:05:18.283Z,97947.17
2019-05-23T16:07:53.256Z,97937.19
2019-05-23T16:10:29.259Z,97938.30
2019-05-23T16:13:04.264Z,97936.56
2019-05-23T16:15:39.707Z,97935.36
2019-05-23T16:18:12.894Z,97935.36
2019-05-23T16:20:47.322Z,97948.22
2019-05-23T16:23:21.956Z,97937.21
2019-05-23T16:25:56.742Z,97937.21
2019-05-23T16:28:31.385Z,97928.81
2019-05-23T16:31:06.281Z,97928.81
2019-05-23T16:33:41.913Z,97933.53
2019-05-23T16:36:17.001Z,97940.04
2019-05-23T16:38:51.737Z,97934.53
2019-05-23T16:41:27.589Z,97943.45
2019-05-23T16:44:01.956Z,97945.43
2019-05-23T16:46:36.671Z,97942.37
2019-05-23T16:49:11.633Z,97943.20
2019-05-23T16:51:46.180Z,97940.59
2019-05-23T16:54:23.291Z,97942.12
2019-05-23T16:57:17.294Z,97941.59
2019-05-23T17:00:02.351Z,97941.53
2019-05-23T17:02:48.290Z,97941.53
2019-05-23T17:05:41.401Z,97943.14
2019-05-23T17:08:34.289Z,97936.21
2019-05-23T17:11:29.740Z,97932.86
2019-05-23T17:14:18.539Z,97933.63
2019-05-23T17:17:13.366Z,97933.63
2019-05-23T17:20:18.975Z,97923.64
2019-05-23T17:23:00.333Z,97923.64
2019-05-23T17:25:44.576Z,97928.52
2019-05-23T17:28:25.520Z,97922.23
2019-05-23T17:31:05.300Z,97922.23
2019-05-23T17:33:40.143Z,97925.05
2019-05-23T17:36:14.649Z,97922.23
2019-05-23T17:38:49.288Z,97917.89
2019-05-23T17:41:24.949Z,97916.58
2019-05-23T17:43:59.578Z,97919.94
2019-05-23T17:46:34.333Z,97919.94
2019-05-23T17:49:08.960Z,97915.59
2019-05-23T17:51:43.353Z,97912.76
2019-05-23T17:54:18.276Z,97911.98
2019-05-23T17:56:53.287Z,97914.02
2019-05-23T17:59:29.323Z,97917.22
2019-05-23T18:02:05.284Z,97917.22
2019-05-23T18:04:39.711Z,97907.23
2019-05-23T18:07:13.275Z,97905.72
2019-05-23T18:09:47.722Z,97901.47
2019-05-23T18:12:22.294Z,97904.34
2019-05-23T18:14:58.305Z,97904.34
2019-05-23T18:17:33.439Z,97911.11
2019-05-23T18:20:09.103Z,97909.26
2019-05-23T18:22:44.287Z,97912.03
2019-05-23T18:25:19.804Z,97912.12
2019-05-23T18:27:52.874Z,97910.15
2019-05-23T18:30:39.634Z,97909.34
2019-05-23T18:33:17.293Z,97914.16
2019-05-23T18:35:53.283Z,97914.16
2019-05-23T18:38:28.143Z,97914.36
2019-05-23T18:41:08.784Z,97919.17
2019-05-23T18:43:40.575Z,97921.16
2019-05-23T18:46:26.303Z,97922.70
2019-05-23T18:49:01.686Z,97917.86
2019-05-23T18:51:34.821Z,97921.55
2019-05-23T18:54:09.283Z,97931.20
2019-05-23T18:56:43.792Z,97933.48
2019-05-23T18:59:17.299Z,97935.33
2019-05-23T19:01:51.763Z,97942.00
2019-05-23T19:04:24.662Z,97942.00
2019-05-23T19:06:59.366Z,97951.84
2019-05-23T19:09:34.075Z,97951.84
2019-05-23T19:12:09.957Z,97954.30
2019-05-23T19:14:44.577Z,97954.30
2019-05-23T19:17:18.909Z,97955.77
2019-05-23T19:19:53.376Z,97950.34
2019-05-23T19:22:28.294Z,97952.16
2019-05-23T19:25:03.594Z,97955.12
2019-05-23T19:27:38.291Z,97955.43
2019-05-23T19:30:14.322Z,97961.70
2019-05-23T19:32:49.066Z,97959.20
2019-05-23T19:35:23.962Z,97964.20
2019-05-23T19:37:58.816Z,97964.20
2019-05-23T19:40:33.777Z,97952.14
2019-05-23T19:43:08.118Z,97953.05
2019-05-23T19:45:42.953Z,97945.73
2019-05-23T19:48:17.956Z,97945.73
2019-05-23T19:50:53.307Z,97946.75
2019-05-23T19:53:28.043Z,97944.22
2019-05-23T19:56:02.981Z,97948.17
2019-05-23T19:58:37.691Z,97948.17
2019-05-23T20:01:12.667Z,97938.13
2019-05-23T20:03:48.286Z,97943.23
2019-05-23T20:06:22.871Z,97934.72
2019-05-23T20:08:58.262Z,97941.84
2019-05-23T20:11:33.264Z,97944.00
2019-05-23T20:14:07.790Z,97943.87
2019-05-23T20:16:40.790Z,97938.52
2019-05-23T20:19:15.286Z,97940.82
2019-05-23T20:21:49.892Z,97940.19
2019-05-23T20:24:22.871Z,97941.06
2019-05-23T20:26:57.129Z,97941.06
2019-05-23T20:29:31.734Z,97940.33
2019-05-23T20:32:07.952Z,97940.95
2019-05-23T20:34:42.358Z,97947.94
2019-05-23T20:37:17.243Z,97944.48
2019-05-23T20:39:51.795Z,97943.34
2019-05-23T20:42:24.688Z,97950.28
2019-05-23T20:44:59.871Z,97945.81
2019-05-23T20:48:13.585Z,97944.05
2019-05-23T20:50:48.323Z,97942.11
2019-05-23T20:53:22.883Z,97940.20
2019-05-23T20:55:55.800Z,97938.30
2019-05-23T20:58:29.943Z,97938.29
2019-05-23T21:01:27.284Z,97936.63
2019-05-23T21:04:02.286Z,97939.27
2019-05-23T21:06:37.289Z,97927.18
2019-05-23T21:09:15.574Z,97927.18
2019-05-23T21:11:48.877Z,97933.52
2019-05-23T21:14:23.429Z,97934.41
2019-05-23T21:31:28.360Z,97920.91
2019-05-23T21:36:31.406Z,97923.15
2019-05-23T21:39:08.501Z,97923.15
2019-05-23T21:41:42.960Z,97922.36
2019-05-23T21:44:17.305Z,97925.50
2019-05-23T21:46:52.956Z,97926.41
2019-05-23T21:49:27.955Z,97921.05
2019-05-23T21:52:02.651Z,97924.22
2019-05-23T21:54:37.110Z,97924.58
2019-05-23T21:57:11.762Z,97929.74
2019-05-23T21:59:44.795Z,97929.74
2019-05-23T22:02:31.288Z,97926.81
2019-05-23T22:05:11.676Z,97925.14
2019-05-23T22:07:46.946Z,97924.90
2019-05-23T22:10:21.689Z,97921.78
2019-05-23T22:13:04.509Z,97927.22
2019-05-23T22:15:39.357Z,97920.73
2019-05-23T22:18:14.113Z,97913.37
2019-05-23T22:20:48.651Z,97919.09
2019-05-23T22:23:23.261Z,97919.09
2019-05-23T22:25:57.730Z,97915.67
2019-05-23T22:28:32.289Z,97907.42
2019-05-23T22:31:07.282Z,97904.63
2019-05-23T22:33:45.116Z,97906.27
2019-05-23T22:36:20.274Z,97911.08
2019-05-23T22:38:54.633Z,97907.77
2019-05-23T22:41:29.295Z,97906.73
2019-05-23T22:44:03.883Z,97910.14
2019-05-23T22:46:37.017Z,97912.93
2019-05-23T22:49:09.858Z,97903.28
2019-05-23T22:51:44.207Z,97903.28
2019-05-23T22:54:18.787Z,97905.86
2019-05-23T22:56:51.815Z,97909.48
2019-05-23T22:59:26.120Z,97907.33
2019-05-23T23:03:29.371Z,97900.35
2019-05-23T23:06:04.440Z,97902.97
2019-05-23T23:08:39.282Z,97899.45
2019-05-23T23:11:13.732Z,97894.70
2019-05-23T23:13:48.081Z,97895.38
2019-05-23T23:16:22.505Z,97895.97
2019-05-23T23:18:57.891Z,97895.97
2019-05-23T23:21:32.290Z,97896.52
2019-05-23T23:24:07.691Z,97892.93
2019-05-23T23:26:42.113Z,97892.38
2019-05-23T23:29:16.876Z,97896.03
2019-05-23T23:31:49.865Z,97896.03
2019-05-23T23:34:24.117Z,97895.75
2019-05-23T23:36:58.667Z,97888.75
2019-05-23T23:39:32.940Z,97889.13
2019-05-23T23:42:07.304Z,97886.30
2019-05-23T23:44:40.451Z,97896.81
2019-05-23T23:47:32.308Z,97902.20
2019-05-23T23:50:24.292Z,97903.73
2019-05-23T23:53:16.275Z,97901.58
2019-05-23T23:56:07.937Z,97895.86
2019-05-23T23:58:41.131Z,97903.55
